sensor_id;sensor_type;location;lat;lon;timestamp;pressure;altitude;pressure_sealevel;temperature;humidity
76297;BME280;65104;52.994;6.552;2023-02-01T00:01:35;101582.06;;;5.46;77.68
76297;BME280;65104;52.994;6.552;2023-02-01T00:04:00;101573.31;;;5.41;77.69
76297;BME280;65104;52.994;6.552;2023-02-01T00:06:26;101561.66;;;5.46;76.87
76297;BME280;65104;52.994;6.552;2023-02-01T00:08:55;101553.50;;;5.51;76.79
76297;BME280;65104;52.994;6.552;2023-02-01T00:11:21;101564.97;;;5.43;76.57
76297;BME280;65104;52.994;6.552;2023-02-01T00:13:47;101567.81;;;5.49;77.00
76297;BME280;65104;52.994;6.552;2023-02-01T00:16:18;101562.88;;;5.52;76.89
76297;BME280;65104;52.994;6.552;2023-02-01T00:18:45;101554.13;;;5.47;77.44
76297;BME280;65104;52.994;6.552;2023-02-01T00:21:12;101559.28;;;5.49;77.65
76297;BME280;65104;52.994;6.552;2023-02-01T00:23:38;101549.75;;;5.45;77.73
76297;BME280;65104;52.994;6.552;2023-02-01T00:26:05;101554.03;;;5.46;77.57
76297;BME280;65104;52.994;6.552;2023-02-01T00:28:32;101555.88;;;5.48;77.10
76297;BME280;65104;52.994;6.552;2023-02-01T00:31:02;101556.91;;;5.52;77.19
76297;BME280;65104;52.994;6.552;2023-02-01T00:33:28;101563.44;;;5.47;77.68
76297;BME280;65104;52.994;6.552;2023-02-01T00:35:57;101546.56;;;5.49;77.03
76297;BME280;65104;52.994;6.552;2023-02-01T00:38:27;101557.78;;;5.52;77.38
76297;BME280;65104;52.994;6.552;2023-02-01T00:40:53;101560.25;;;5.51;77.20
76297;BME280;65104;52.994;6.552;2023-02-01T00:43:19;101557.13;;;5.56;76.34
76297;BME280;65104;52.994;6.552;2023-02-01T00:45:45;101554.28;;;5.50;77.27
76297;BME280;65104;52.994;6.552;2023-02-01T00:48:11;101564.78;;;5.56;77.09
76297;BME280;65104;52.994;6.552;2023-02-01T00:50:43;101551.09;;;5.54;77.32
76297;BME280;65104;52.994;6.552;2023-02-01T00:53:10;101551.72;;;5.50;77.54
76297;BME280;65104;52.994;6.552;2023-02-01T00:55:35;101553.69;;;5.56;76.59
76297;BME280;65104;52.994;6.552;2023-02-01T00:58:01;101547.69;;;5.54;76.85
76297;BME280;65104;52.994;6.552;2023-02-01T01:00:26;101541.75;;;5.55;76.82
76297;BME280;65104;52.994;6.552;2023-02-01T01:02:52;101549.47;;;5.56;77.24
76297;BME280;65104;52.994;6.552;2023-02-01T01:05:17;101535.06;;;5.57;76.61
76297;BME280;65104;52.994;6.552;2023-02-01T01:07:42;101531.53;;;5.53;77.19
76297;BME280;65104;52.994;6.552;2023-02-01T01:10:08;101532.44;;;5.55;77.25
76297;BME280;65104;52.994;6.552;2023-02-01T01:12:34;101534.19;;;5.56;76.82
76297;BME280;65104;52.994;6.552;2023-02-01T01:14:59;101529.97;;;5.57;77.02
76297;BME280;65104;52.994;6.552;2023-02-01T01:17:24;101533.31;;;5.56;76.78
76297;BME280;65104;52.994;6.552;2023-02-01T01:19:50;101527.44;;;5.57;76.83
76297;BME280;65104;52.994;6.552;2023-02-01T01:22:15;101538.50;;;5.57;76.73
76297;BME280;65104;52.994;6.552;2023-02-01T01:24:41;101520.81;;;5.60;76.78
76297;BME280;65104;52.994;6.552;2023-02-01T01:27:06;101521.63;;;5.59;77.62
76297;BME280;65104;52.994;6.552;2023-02-01T01:29:31;101514.63;;;5.55;77.51
76297;BME280;65104;52.994;6.552;2023-02-01T01:31:57;101522.50;;;5.60;77.53
76297;BME280;65104;52.994;6.552;2023-02-01T01:34:22;101509.69;;;5.58;77.77
76297;BME280;65104;52.994;6.552;2023-02-01T01:36:48;101499.50;;;5.58;77.67
76297;BME280;65104;52.994;6.552;2023-02-01T01:39:13;101496.94;;;5.58;77.83
76297;BME280;65104;52.994;6.552;2023-02-01T01:41:38;101502.56;;;5.69;77.86
76297;BME280;65104;52.994;6.552;2023-02-01T01:44:06;101504.25;;;5.69;78.16
76297;BME280;65104;52.994;6.552;2023-02-01T01:46:50;101499.16;;;5.69;78.31
76297;BME280;65104;52.994;6.552;2023-02-01T01:49:23;101508.16;;;5.62;79.36
76297;BME280;65104;52.994;6.552;2023-02-01T01:51:58;101496.22;;;5.61;79.95
76297;BME280;65104;52.994;6.552;2023-02-01T01:54:32;101496.78;;;5.55;80.43
76297;BME280;65104;52.994;6.552;2023-02-01T01:57:02;101473.28;;;5.43;81.45
76297;BME280;65104;52.994;6.552;2023-02-01T01:59:31;101475.81;;;5.43;82.16
76297;BME280;65104;52.994;6.552;2023-02-01T02:01:57;101475.81;;;5.43;81.84
76297;BME280;65104;52.994;6.552;2023-02-01T02:04:24;101474.94;;;5.43;81.29
76297;BME280;65104;52.994;6.552;2023-02-01T02:06:57;101468.53;;;5.33;82.41
76297;BME280;65104;52.994;6.552;2023-02-01T02:09:25;101471.78;;;5.31;84.08
76297;BME280;65104;52.994;6.552;2023-02-01T02:11:50;101468.53;;;5.33;83.52
76297;BME280;65104;52.994;6.552;2023-02-01T02:14:17;101474.25;;;5.29;83.72
76297;BME280;65104;52.994;6.552;2023-02-01T02:19:37;101459.63;;;5.25;84.14
76297;BME280;65104;52.994;6.552;2023-02-01T02:38:44;101438.81;;;5.16;84.67
76297;BME280;65104;52.994;6.552;2023-02-01T02:41:17;101428.47;;;5.13;85.18
76297;BME280;65104;52.994;6.552;2023-02-01T02:44:13;101420.28;;;5.18;84.80
76297;BME280;65104;52.994;6.552;2023-02-01T02:47:10;101410.13;;;5.20;84.61
76297;BME280;65104;52.994;6.552;2023-02-01T02:49:58;101404.41;;;5.24;84.56
76297;BME280;65104;52.994;6.552;2023-02-01T02:52:49;101402.75;;;5.24;85.04
76297;BME280;65104;52.994;6.552;2023-02-01T02:55:43;101406.66;;;5.18;84.92
76297;BME280;65104;52.994;6.552;2023-02-01T02:58:10;101405.22;;;5.23;84.38
76297;BME280;65104;52.994;6.552;2023-02-01T03:00:57;101407.75;;;5.23;84.63
76297;BME280;65104;52.994;6.552;2023-02-01T03:03:42;101408.72;;;5.25;85.25
76297;BME280;65104;52.994;6.552;2023-02-01T03:06:33;101401.16;;;5.26;84.91
76297;BME280;65104;52.994;6.552;2023-02-01T03:09:01;101405.81;;;5.35;84.36
76297;BME280;65104;52.994;6.552;2023-02-01T03:11:29;101390.47;;;5.34;84.15
76297;BME280;65104;52.994;6.552;2023-02-01T03:14:19;101390.38;;;5.32;84.23
76297;BME280;65104;52.994;6.552;2023-02-01T03:16:47;101387.81;;;5.32;84.12
76297;BME280;65104;52.994;6.552;2023-02-01T03:19:15;101399.84;;;5.35;83.65
76297;BME280;65104;52.994;6.552;2023-02-01T03:24:18;101393.97;;;5.36;83.45
76297;BME280;65104;52.994;6.552;2023-02-01T03:26:51;101386.59;;;5.42;83.38
76297;BME280;65104;52.994;6.552;2023-02-01T03:29:22;101377.72;;;5.34;83.80
76297;BME280;65104;52.994;6.552;2023-02-01T03:31:49;101366.81;;;5.36;83.58
76297;BME280;65104;52.994;6.552;2023-02-01T03:34:14;101380.34;;;5.35;83.89
76297;BME280;65104;52.994;6.552;2023-02-01T03:36:49;101387.13;;;5.35;83.61
76297;BME280;65104;52.994;6.552;2023-02-01T03:39:30;101367.75;;;5.38;83.51
76297;BME280;65104;52.994;6.552;2023-02-01T03:41:59;101363.75;;;5.43;82.31
76297;BME280;65104;52.994;6.552;2023-02-01T03:44:31;101372.34;;;5.45;83.32
76297;BME280;65104;52.994;6.552;2023-02-01T03:47:00;101367.19;;;5.44;83.36
76297;BME280;65104;52.994;6.552;2023-02-01T03:49:41;101373.44;;;5.50;82.43
76297;BME280;65104;52.994;6.552;2023-02-01T03:52:11;101366.75;;;5.52;81.52
76297;BME280;65104;52.994;6.552;2023-02-01T03:54:39;101369.22;;;5.51;82.06
76297;BME280;65104;52.994;6.552;2023-02-01T03:57:09;101360.63;;;5.49;82.90
76297;BME280;65104;52.994;6.552;2023-02-01T03:59:41;101345.34;;;5.49;82.30
76297;BME280;65104;52.994;6.552;2023-02-01T04:02:06;101349.34;;;5.44;83.24
76297;BME280;65104;52.994;6.552;2023-02-01T04:04:33;101347.25;;;5.53;82.29
76297;BME280;65104;52.994;6.552;2023-02-01T04:06:59;101346.44;;;5.54;82.59
76297;BME280;65104;52.994;6.552;2023-02-01T04:09:24;101359.97;;;5.53;82.61
76297;BME280;65104;52.994;6.552;2023-02-01T04:11:50;101358.72;;;5.62;81.37
76297;BME280;65104;52.994;6.552;2023-02-01T04:14:15;101355.44;;;5.47;83.44
76297;BME280;65104;52.994;6.552;2023-02-01T04:16:40;101362.97;;;5.44;84.60
76297;BME280;65104;52.994;6.552;2023-02-01T04:19:06;101352.53;;;5.40;85.19
76297;BME280;65104;52.994;6.552;2023-02-01T04:21:31;101365.00;;;5.34;85.96
76297;BME280;65104;52.994;6.552;2023-02-01T04:23:57;101363.25;;;5.33;85.52
76297;BME280;65104;52.994;6.552;2023-02-01T04:26:22;101353.78;;;5.30;86.19
76297;BME280;65104;52.994;6.552;2023-02-01T04:28:48;101357.00;;;5.26;85.87
76297;BME280;65104;52.994;6.552;2023-02-01T04:31:15;101353.06;;;5.33;85.49
76297;BME280;65104;52.994;6.552;2023-02-01T04:33:40;101354.97;;;5.37;84.47
76297;BME280;65104;52.994;6.552;2023-02-01T04:36:06;101361.22;;;5.43;84.28
76297;BME280;65104;52.994;6.552;2023-02-01T04:38:31;101356.91;;;5.42;83.77
76297;BME280;65104;52.994;6.552;2023-02-01T04:40:57;101362.00;;;5.42;84.01
76297;BME280;65104;52.994;6.552;2023-02-01T04:43:23;101343.38;;;5.43;84.03
76297;BME280;65104;52.994;6.552;2023-02-01T04:45:50;101339.59;;;5.35;85.20
76297;BME280;65104;52.994;6.552;2023-02-01T04:48:16;101351.03;;;5.43;83.97
76297;BME280;65104;52.994;6.552;2023-02-01T04:50:43;101352.81;;;5.46;83.13
76297;BME280;65104;52.994;6.552;2023-02-01T04:53:11;101348.59;;;5.46;83.13
76297;BME280;65104;52.994;6.552;2023-02-01T04:55:36;101342.72;;;5.47;82.98
76297;BME280;65104;52.994;6.552;2023-02-01T04:58:01;101348.16;;;5.55;82.26
76297;BME280;65104;52.994;6.552;2023-02-01T05:00:27;101349.03;;;5.55;82.63
76297;BME280;65104;52.994;6.552;2023-02-01T05:02:52;101346.13;;;5.48;82.79
76297;BME280;65104;52.994;6.552;2023-02-01T05:05:17;101336.81;;;5.48;81.78
76297;BME280;65104;52.994;6.552;2023-02-01T05:07:43;101343.31;;;5.42;82.41
76297;BME280;65104;52.994;6.552;2023-02-01T05:10:09;101334.00;;;5.42;82.13
76297;BME280;65104;52.994;6.552;2023-02-01T05:12:34;101334.16;;;5.45;81.88
76297;BME280;65104;52.994;6.552;2023-02-01T05:15:18;101350.34;;;5.47;81.74
76297;BME280;65104;52.994;6.552;2023-02-01T05:17:44;101354.00;;;5.52;81.13
76297;BME280;65104;52.994;6.552;2023-02-01T05:20:09;101354.13;;;5.55;81.59
76297;BME280;65104;52.994;6.552;2023-02-01T05:22:35;101357.34;;;5.51;82.13
76297;BME280;65104;52.994;6.552;2023-02-01T05:25:00;101345.63;;;5.55;81.91
76297;BME280;65104;52.994;6.552;2023-02-01T05:27:29;101353.25;;;5.55;81.83
76297;BME280;65104;52.994;6.552;2023-02-01T05:29:54;101359.66;;;5.47;82.21
76297;BME280;65104;52.994;6.552;2023-02-01T05:32:20;101358.94;;;5.49;82.60
76297;BME280;65104;52.994;6.552;2023-02-01T05:34:45;101365.00;;;5.51;81.82
76297;BME280;65104;52.994;6.552;2023-02-01T05:37:10;101386.75;;;5.45;83.49
76297;BME280;65104;52.994;6.552;2023-02-01T05:39:36;101375.69;;;5.44;83.36
76297;BME280;65104;52.994;6.552;2023-02-01T05:42:01;101373.59;;;5.53;82.12
76297;BME280;65104;52.994;6.552;2023-02-01T05:44:27;101382.22;;;5.57;81.07
76297;BME280;65104;52.994;6.552;2023-02-01T05:46:52;101391.84;;;5.62;81.50
76297;BME280;65104;52.994;6.552;2023-02-01T05:49:17;101380.63;;;5.59;81.28
76297;BME280;65104;52.994;6.552;2023-02-01T05:51:43;101378.09;;;5.59;81.77
76297;BME280;65104;52.994;6.552;2023-02-01T05:54:08;101373.16;;;5.62;81.82
76297;BME280;65104;52.994;6.552;2023-02-01T05:56:34;101371.16;;;5.56;81.40
76297;BME280;65104;52.994;6.552;2023-02-01T05:58:59;101367.19;;;5.61;82.22
76297;BME280;65104;52.994;6.552;2023-02-01T06:01:24;101363.31;;;5.70;80.97
76297;BME280;65104;52.994;6.552;2023-02-01T06:03:50;101373.50;;;5.70;80.44
76297;BME280;65104;52.994;6.552;2023-02-01T06:06:15;101376.84;;;5.69;80.87
76297;BME280;65104;52.994;6.552;2023-02-01T06:08:41;101368.31;;;5.68;81.22
76297;BME280;65104;52.994;6.552;2023-02-01T06:11:06;101372.53;;;5.68;80.68
76297;BME280;65104;52.994;6.552;2023-02-01T06:13:32;101385.28;;;5.68;80.75
76297;BME280;65104;52.994;6.552;2023-02-01T06:15:58;101367.19;;;5.61;82.08
76297;BME280;65104;52.994;6.552;2023-02-01T06:18:24;101362.81;;;5.59;81.91
76297;BME280;65104;52.994;6.552;2023-02-01T06:20:57;101368.94;;;5.62;80.94
76297;BME280;65104;52.994;6.552;2023-02-01T06:23:23;101366.38;;;5.62;81.58
76297;BME280;65104;52.994;6.552;2023-02-01T06:25:57;101372.28;;;5.61;80.90
76297;BME280;65104;52.994;6.552;2023-02-01T06:28:23;101372.78;;;5.54;81.72
76297;BME280;65104;52.994;6.552;2023-02-01T06:30:48;101357.44;;;5.53;82.07
76297;BME280;65104;52.994;6.552;2023-02-01T06:33:14;101365.19;;;5.56;81.03
76297;BME280;65104;52.994;6.552;2023-02-01T06:35:43;101371.03;;;5.53;81.29
76297;BME280;65104;52.994;6.552;2023-02-01T06:38:12;101369.22;;;5.51;81.67
76297;BME280;65104;52.994;6.552;2023-02-01T06:40:38;101367.53;;;5.51;81.52
76297;BME280;65104;52.994;6.552;2023-02-01T06:43:04;101376.78;;;5.49;82.26
76297;BME280;65104;52.994;6.552;2023-02-01T06:45:29;101374.31;;;5.51;81.95
76297;BME280;65104;52.994;6.552;2023-02-01T06:47:55;101378.38;;;5.47;82.43
76297;BME280;65104;52.994;6.552;2023-02-01T06:50:20;101389.44;;;5.48;82.38
76297;BME280;65104;52.994;6.552;2023-02-01T06:52:46;101394.44;;;5.46;82.15
76297;BME280;65104;52.994;6.552;2023-02-01T06:55:11;101393.72;;;5.49;81.92
76297;BME280;65104;52.994;6.552;2023-02-01T06:57:38;101383.38;;;5.46;83.15
76297;BME280;65104;52.994;6.552;2023-02-01T07:00:03;101392.84;;;5.48;82.00
76297;BME280;65104;52.994;6.552;2023-02-01T07:02:29;101387.25;;;5.55;81.68
76297;BME280;65104;52.994;6.552;2023-02-01T07:04:54;101390.53;;;5.53;81.79
76297;BME280;65104;52.994;6.552;2023-02-01T07:07:20;101386.97;;;5.49;81.94
76297;BME280;65104;52.994;6.552;2023-02-01T07:09:48;101398.03;;;5.50;81.66
76297;BME280;65104;52.994;6.552;2023-02-01T07:12:13;101403.19;;;5.51;82.03
76297;BME280;65104;52.994;6.552;2023-02-01T07:14:39;101399.69;;;5.49;82.29
76297;BME280;65104;52.994;6.552;2023-02-01T07:17:04;101391.41;;;5.53;82.01
76297;BME280;65104;52.994;6.552;2023-02-01T07:19:30;101403.47;;;5.57;81.63
76297;BME280;65104;52.994;6.552;2023-02-01T07:21:55;101401.53;;;5.52;82.31
76297;BME280;65104;52.994;6.552;2023-02-01T07:24:20;101394.25;;;5.59;82.14
76297;BME280;65104;52.994;6.552;2023-02-01T07:26:46;101392.50;;;5.58;81.47
76297;BME280;65104;52.994;6.552;2023-02-01T07:29:13;101389.78;;;5.55;82.36
76297;BME280;65104;52.994;6.552;2023-02-01T07:31:38;101373.94;;;5.61;82.23
76297;BME280;65104;52.994;6.552;2023-02-01T07:34:03;101402.69;;;5.58;81.86
76297;BME280;65104;52.994;6.552;2023-02-01T07:36:29;101382.22;;;5.57;82.82
76297;BME280;65104;52.994;6.552;2023-02-01T07:38:55;101385.00;;;5.61;81.37
76297;BME280;65104;52.994;6.552;2023-02-01T07:41:20;101396.16;;;5.63;81.77
76297;BME280;65104;52.994;6.552;2023-02-01T07:43:46;101389.22;;;5.61;82.13
76297;BME280;65104;52.994;6.552;2023-02-01T07:46:11;101399.63;;;5.65;81.35
76297;BME280;65104;52.994;6.552;2023-02-01T07:48:37;101407.34;;;5.67;82.26
76297;BME280;65104;52.994;6.552;2023-02-01T07:51:06;101404.00;;;5.68;81.61
76297;BME280;65104;52.994;6.552;2023-02-01T07:53:33;101412.34;;;5.65;81.98
76297;BME280;65104;52.994;6.552;2023-02-01T07:55:59;101423.44;;;5.66;81.81
76297;BME280;65104;52.994;6.552;2023-02-01T07:58:26;101410.50;;;5.61;82.55
76297;BME280;65104;52.994;6.552;2023-02-01T08:00:52;101408.81;;;5.62;82.68
76297;BME280;65104;52.994;6.552;2023-02-01T08:03:36;101417.19;;;5.59;82.59
76297;BME280;65104;52.994;6.552;2023-02-01T08:06:02;101416.31;;;5.59;82.94
76297;BME280;65104;52.994;6.552;2023-02-01T08:08:27;101414.69;;;5.61;82.25
76297;BME280;65104;52.994;6.552;2023-02-01T08:11:00;101404.44;;;5.59;82.11
76297;BME280;65104;52.994;6.552;2023-02-01T08:13:26;101397.66;;;5.60;82.06
76297;BME280;65104;52.994;6.552;2023-02-01T08:15:51;101413.75;;;5.59;82.41
76297;BME280;65104;52.994;6.552;2023-02-01T08:18:17;101408.06;;;5.64;82.10
76297;BME280;65104;52.994;6.552;2023-02-01T08:20:44;101403.03;;;5.66;81.89
76297;BME280;65104;52.994;6.552;2023-02-01T08:23:11;101415.84;;;5.68;81.75
76297;BME280;65104;52.994;6.552;2023-02-01T08:25:37;101407.56;;;5.72;81.83
76297;BME280;65104;52.994;6.552;2023-02-01T08:28:05;101409.97;;;5.69;82.31
76297;BME280;65104;52.994;6.552;2023-02-01T08:30:31;101405.81;;;5.71;82.28
76297;BME280;65104;52.994;6.552;2023-02-01T08:32:57;101404.19;;;5.73;81.59
76297;BME280;65104;52.994;6.552;2023-02-01T08:35:22;101401.00;;;5.77;81.62
76297;BME280;65104;52.994;6.552;2023-02-01T08:37:49;101391.53;;;5.74;81.15
76297;BME280;65104;52.994;6.552;2023-02-01T08:40:15;101393.34;;;5.77;81.76
76297;BME280;65104;52.994;6.552;2023-02-01T08:42:40;101400.38;;;5.81;81.41
76297;BME280;65104;52.994;6.552;2023-02-01T08:45:24;101400.28;;;5.79;82.32
76297;BME280;65104;52.994;6.552;2023-02-01T08:47:51;101398.09;;;5.87;81.73
76297;BME280;65104;52.994;6.552;2023-02-01T08:50:17;101395.53;;;5.87;82.38
76297;BME280;65104;52.994;6.552;2023-02-01T08:52:42;101386.88;;;5.83;82.58
76297;BME280;65104;52.994;6.552;2023-02-01T08:55:08;101389.50;;;5.85;81.67
76297;BME280;65104;52.994;6.552;2023-02-01T08:57:34;101376.94;;;5.88;82.18
76297;BME280;65104;52.994;6.552;2023-02-01T08:59:59;101377.63;;;5.85;82.66
76297;BME280;65104;52.994;6.552;2023-02-01T09:02:25;101365.25;;;5.93;81.46
76297;BME280;65104;52.994;6.552;2023-02-01T09:04:51;101373.66;;;5.90;82.23
76297;BME280;65104;52.994;6.552;2023-02-01T09:07:17;101372.19;;;5.95;81.60
76297;BME280;65104;52.994;6.552;2023-02-01T09:09:43;101357.63;;;5.93;81.31
76297;BME280;65104;52.994;6.552;2023-02-01T09:12:09;101350.75;;;5.92;80.94
76297;BME280;65104;52.994;6.552;2023-02-01T09:14:35;101358.28;;;5.89;82.02
76297;BME280;65104;52.994;6.552;2023-02-01T09:17:00;101353.19;;;5.89;82.63
76297;BME280;65104;52.994;6.552;2023-02-01T09:19:26;101362.00;;;5.95;82.03
76297;BME280;65104;52.994;6.552;2023-02-01T09:21:51;101344.06;;;5.94;81.00
76297;BME280;65104;52.994;6.552;2023-02-01T09:24:16;101346.47;;;5.91;81.73
76297;BME280;65104;52.994;6.552;2023-02-01T09:26:42;101348.19;;;5.90;81.63
76297;BME280;65104;52.994;6.552;2023-02-01T09:29:08;101334.59;;;5.91;81.78
76297;BME280;65104;52.994;6.552;2023-02-01T09:31:37;101343.91;;;5.91;81.93
76297;BME280;65104;52.994;6.552;2023-02-01T09:34:03;101344.88;;;5.93;80.77
76297;BME280;65104;52.994;6.552;2023-02-01T09:36:28;101340.72;;;5.95;81.12
76297;BME280;65104;52.994;6.552;2023-02-01T09:38:54;101336.28;;;5.91;81.81
76297;BME280;65104;52.994;6.552;2023-02-01T09:41:46;101317.13;;;5.99;80.43
76297;BME280;65104;52.994;6.552;2023-02-01T09:46:58;101336.28;;;5.91;82.09
76297;BME280;65104;52.994;6.552;2023-02-01T09:49:37;101325.44;;;5.95;80.67
76297;BME280;65104;52.994;6.552;2023-02-01T09:52:10;101320.94;;;5.89;82.03
76297;BME280;65104;52.994;6.552;2023-02-01T09:54:47;101305.91;;;5.78;83.08
76297;BME280;65104;52.994;6.552;2023-02-01T09:57:30;101308.13;;;5.70;84.42
76297;BME280;65104;52.994;6.552;2023-02-01T10:00:05;101299.25;;;5.62;86.18
76297;BME280;65104;52.994;6.552;2023-02-01T10:02:33;101293.41;;;5.64;85.06
76297;BME280;65104;52.994;6.552;2023-02-01T10:05:01;101287.53;;;5.65;85.45
76297;BME280;65104;52.994;6.552;2023-02-01T10:07:38;101294.38;;;5.66;85.48
76297;BME280;65104;52.994;6.552;2023-02-01T10:10:14;101301.75;;;5.60;84.92
76297;BME280;65104;52.994;6.552;2023-02-01T10:15:52;101295.63;;;5.57;85.25
76297;BME280;65104;52.994;6.552;2023-02-01T10:18:37;101288.44;;;5.48;86.64
76297;BME280;65104;52.994;6.552;2023-02-01T10:24:28;101293.22;;;5.60;84.78
76297;BME280;65104;52.994;6.552;2023-02-01T10:29:41;101291.56;;;5.60;85.01
76297;BME280;65104;52.994;6.552;2023-02-01T10:32:11;101294.91;;;5.59;85.75
76297;BME280;65104;52.994;6.552;2023-02-01T10:34:37;101290.81;;;5.63;85.24
76297;BME280;65104;52.994;6.552;2023-02-01T10:37:33;101296.91;;;5.66;84.59
76297;BME280;65104;52.994;6.552;2023-02-01T10:40:02;101292.63;;;5.65;84.56
76297;BME280;65104;52.994;6.552;2023-02-01T10:42:31;101278.53;;;5.74;84.40
76297;BME280;65104;52.994;6.552;2023-02-01T10:44:59;101271.28;;;5.81;83.46
76297;BME280;65104;52.994;6.552;2023-02-01T10:47:27;101288.50;;;5.87;83.38
76297;BME280;65104;52.994;6.552;2023-02-01T10:49:58;101282.63;;;5.88;83.65
76297;BME280;65104;52.994;6.552;2023-02-01T10:52:40;101278.88;;;5.99;82.32
76297;BME280;65104;52.994;6.552;2023-02-01T10:55:26;101284.03;;;6.00;83.44
76297;BME280;65104;52.994;6.552;2023-02-01T10:58:00;101264.50;;;6.01;82.44
76297;BME280;65104;52.994;6.552;2023-02-01T11:00:27;101250.09;;;6.01;82.72
76297;BME280;65104;52.994;6.552;2023-02-01T11:02:54;101263.06;;;6.06;82.48
76297;BME280;65104;52.994;6.552;2023-02-01T11:05:21;101257.00;;;6.04;82.21
76297;BME280;65104;52.994;6.552;2023-02-01T11:07:50;101261.56;;;6.11;81.52
76297;BME280;65104;52.994;6.552;2023-02-01T11:10:38;101263.13;;;6.08;83.08
76297;BME280;65104;52.994;6.552;2023-02-01T11:13:13;101252.97;;;6.09;82.86
76297;BME280;65104;52.994;6.552;2023-02-01T11:15:45;101262.28;;;6.09;83.66
76297;BME280;65104;52.994;6.552;2023-02-01T11:18:19;101254.47;;;6.04;83.51
76297;BME280;65104;52.994;6.552;2023-02-01T11:20:46;101257.06;;;6.06;83.54
76297;BME280;65104;52.994;6.552;2023-02-01T11:23:33;101253.78;;;6.08;83.13
76297;BME280;65104;52.994;6.552;2023-02-01T11:26:24;101249.91;;;6.16;81.98
76297;BME280;65104;52.994;6.552;2023-02-01T11:28:54;101233.09;;;6.21;82.48
76297;BME280;65104;52.994;6.552;2023-02-01T11:31:22;101241.06;;;6.29;81.73
76297;BME280;65104;52.994;6.552;2023-02-01T11:33:58;101234.88;;;6.43;80.99
76297;BME280;65104;52.994;6.552;2023-02-01T11:36:27;101223.00;;;6.44;81.17
76297;BME280;65104;52.994;6.552;2023-02-01T11:42:15;101251.66;;;6.17;85.13
76297;BME280;65104;52.994;6.552;2023-02-01T11:44:43;101242.03;;;6.12;84.39
76297;BME280;65104;52.994;6.552;2023-02-01T11:47:39;101249.81;;;6.15;84.07
76297;BME280;65104;52.994;6.552;2023-02-01T11:50:14;101217.66;;;6.18;84.35
76297;BME280;65104;52.994;6.552;2023-02-01T12:01:12;101244.34;;;6.26;85.38
76297;BME280;65104;52.994;6.552;2023-02-01T12:04:03;101257.56;;;6.37;83.45
76297;BME280;65104;52.994;6.552;2023-02-01T12:06:37;101246.06;;;6.47;83.18
76297;BME280;65104;52.994;6.552;2023-02-01T12:18:13;101252.31;;;6.74;82.64
76297;BME280;65104;52.994;6.552;2023-02-01T12:26:05;101269.25;;;6.51;83.88
76297;BME280;65104;52.994;6.552;2023-02-01T12:31:46;101261.16;;;6.61;83.55
76297;BME280;65104;52.994;6.552;2023-02-01T12:37:09;101251.00;;;7.27;81.61
76297;BME280;65104;52.994;6.552;2023-02-01T12:47:55;101253.69;;;7.30;81.29
76297;BME280;65104;52.994;6.552;2023-02-01T12:50:45;101252.66;;;7.25;80.44
76297;BME280;65104;52.994;6.552;2023-02-01T12:53:18;101267.53;;;7.14;80.17
76297;BME280;65104;52.994;6.552;2023-02-01T12:55:52;101272.38;;;7.08;81.52
76297;BME280;65104;52.994;6.552;2023-02-01T12:58:41;101270.34;;;6.99;80.22
76297;BME280;65104;52.994;6.552;2023-02-01T13:01:16;101274.56;;;6.99;80.47
76297;BME280;65104;52.994;6.552;2023-02-01T13:06:28;101269.72;;;7.05;80.54
76297;BME280;65104;52.994;6.552;2023-02-01T13:11:44;101258.59;;;7.25;80.57
76297;BME280;65104;52.994;6.552;2023-02-01T13:16:51;101265.06;;;7.38;79.48
76297;BME280;65104;52.994;6.552;2023-02-01T13:22:00;101282.34;;;7.45;79.37
76297;BME280;65104;52.994;6.552;2023-02-01T13:24:37;101258.41;;;7.43;79.41
76297;BME280;65104;52.994;6.552;2023-02-01T13:27:05;101265.13;;;7.39;78.47
76297;BME280;65104;52.994;6.552;2023-02-01T13:29:31;101277.66;;;7.33;78.71
76297;BME280;65104;52.994;6.552;2023-02-01T13:32:17;101284.91;;;7.23;78.68
76297;BME280;65104;52.994;6.552;2023-02-01T13:42:35;101279.22;;;7.52;78.06
76297;BME280;65104;52.994;6.552;2023-02-01T13:45:14;101282.00;;;7.36;79.16
76297;BME280;65104;52.994;6.552;2023-02-01T13:47:42;101285.38;;;7.35;79.57
76297;BME280;65104;52.994;6.552;2023-02-01T13:50:34;101295.50;;;7.32;79.96
76297;BME280;65104;52.994;6.552;2023-02-01T13:53:17;101280.03;;;7.29;80.49
76297;BME280;65104;52.994;6.552;2023-02-01T13:55:45;101307.69;;;7.18;79.92
76297;BME280;65104;52.994;6.552;2023-02-01T13:58:19;101305.94;;;7.17;79.90
76297;BME280;65104;52.994;6.552;2023-02-01T14:00:47;101297.19;;;7.10;80.81
76297;BME280;65104;52.994;6.552;2023-02-01T14:03:15;101295.34;;;7.06;80.32
76297;BME280;65104;52.994;6.552;2023-02-01T14:13:35;101309.13;;;7.32;79.27
76297;BME280;65104;52.994;6.552;2023-02-01T14:23:57;101309.44;;;7.40;79.31
76297;BME280;65104;52.994;6.552;2023-02-01T14:26:25;101320.47;;;7.39;79.18
76297;BME280;65104;52.994;6.552;2023-02-01T14:28:57;101326.38;;;7.38;79.17
76297;BME280;65104;52.994;6.552;2023-02-01T14:31:33;101321.72;;;7.28;78.73
76297;BME280;65104;52.994;6.552;2023-02-01T14:36:57;101332.22;;;7.35;79.45
76297;BME280;65104;52.994;6.552;2023-02-01T14:39:28;101337.25;;;7.34;79.49
76297;BME280;65104;52.994;6.552;2023-02-01T14:50:23;101338.19;;;7.13;79.20
76297;BME280;65104;52.994;6.552;2023-02-01T14:52:59;101336.13;;;7.05;79.59
76297;BME280;65104;52.994;6.552;2023-02-01T14:57:55;101347.75;;;6.98;78.92
76297;BME280;65104;52.994;6.552;2023-02-01T15:00:28;101334.00;;;6.95;79.20
76297;BME280;65104;52.994;6.552;2023-02-01T15:03:01;101323.94;;;6.98;79.64
76297;BME280;65104;52.994;6.552;2023-02-01T15:05:39;101347.56;;;6.94;79.28
76297;BME280;65104;52.994;6.552;2023-02-01T15:08:14;101347.44;;;6.91;79.02
76297;BME280;65104;52.994;6.552;2023-02-01T15:10:45;101353.41;;;6.91;78.83
76297;BME280;65104;52.994;6.552;2023-02-01T15:13:19;101367.06;;;6.92;77.57
76297;BME280;65104;52.994;6.552;2023-02-01T15:16:20;101370.47;;;6.92;76.86